createdAt,value
2018-02-20T00:00:54.196Z,71.72
2018-02-20T00:03:22.905Z,77.75
2018-02-20T00:05:51.236Z,79.57
2018-02-20T00:08:19.564Z,80.45
2018-02-20T00:10:47.971Z,82.70
2018-02-20T00:13:17.370Z,87.70
2018-02-20T00:15:45.719Z,82.65
2018-02-20T00:18:14.168Z,80.95
2018-02-20T00:20:42.521Z,96.37
2018-02-20T00:23:11.592Z,91.65
2018-02-20T00:25:40.905Z,79.62
2018-02-20T00:28:09.971Z,78.28
2018-02-20T00:30:38.418Z,77.68
2018-02-20T00:33:06.749Z,81.32
2018-02-20T00:35:35.071Z,84.32
2018-02-20T00:38:03.384Z,73.40
2018-02-20T00:40:31.757Z,73.50
2018-02-20T00:43:00.873Z,75.30
2018-02-20T00:45:29.201Z,80.75
2018-02-20T00:47:57.704Z,82.03
2018-02-20T00:50:26.059Z,85.53
2018-02-20T00:52:54.529Z,78.75
2018-02-20T00:55:22.917Z,78.12
2018-02-20T00:57:51.247Z,69.47
2018-02-20T01:00:19.635Z,77.95
2018-02-20T01:02:47.983Z,67.37
2018-02-20T01:05:16.312Z,69.18
2018-02-20T01:07:45.408Z,71.87
2018-02-20T01:10:13.958Z,75.28
2018-02-20T01:12:42.283Z,84.97
2018-02-20T01:15:10.597Z,87.97
2018-02-20T01:17:38.964Z,75.90
2018-02-20T01:20:07.273Z,70.90
2018-02-20T01:22:36.369Z,78.62
2018-02-20T01:25:04.739Z,72.87
2018-02-20T01:27:33.047Z,79.75
2018-02-20T01:30:01.410Z,85.15
2018-02-20T01:32:30.295Z,85.25
2018-02-20T01:34:58.739Z,73.53
2018-02-20T01:37:27.078Z,77.18
2018-02-20T01:39:56.177Z,84.07
2018-02-20T01:42:25.260Z,72.72
2018-02-20T01:44:54.363Z,79.45
2018-02-20T01:47:23.476Z,77.85
2018-02-20T01:49:51.802Z,74.57
2018-02-20T01:52:20.113Z,74.95
2018-02-20T01:54:48.845Z,83.68
2018-02-20T01:57:17.176Z,78.53
2018-02-20T01:59:45.524Z,74.53
2018-02-20T02:02:13.995Z,72.40
2018-02-20T02:04:42.408Z,77.30
2018-02-20T02:07:10.775Z,104.72
2018-02-20T02:09:39.267Z,79.20
2018-02-20T02:12:07.754Z,72.85
2018-02-20T02:14:36.176Z,71.00
2018-02-20T02:17:05.107Z,77.68
2018-02-20T02:19:33.442Z,78.75
2018-02-20T02:22:01.821Z,81.30
2018-02-20T02:24:30.240Z,80.30
2018-02-20T02:26:58.629Z,83.43
2018-02-20T02:29:27.050Z,72.50
2018-02-20T02:31:59.337Z,72.12
2018-02-20T02:34:27.689Z,79.62
2018-02-20T02:36:55.988Z,75.87
2018-02-20T02:39:24.454Z,88.47
2018-02-20T02:41:52.819Z,78.53
2018-02-20T02:44:21.912Z,71.18
2018-02-20T02:46:51.020Z,81.28
2018-02-20T02:49:19.338Z,90.25
2018-02-20T02:51:47.730Z,84.05
2018-02-20T02:54:16.115Z,76.45
2018-02-20T02:56:44.434Z,77.05
2018-02-20T02:59:12.801Z,78.05
2018-02-20T03:01:42.237Z,83.80
2018-02-20T03:04:10.574Z,74.78
2018-02-20T03:06:39.682Z,79.75
2018-02-20T03:09:08.785Z,79.82
2018-02-20T03:11:37.084Z,82.25
2018-02-20T03:14:05.428Z,85.03
2018-02-20T03:16:33.845Z,79.68
2018-02-20T03:19:02.193Z,76.62
2018-02-20T03:21:30.518Z,86.05
2018-02-20T03:24:00.184Z,78.45
2018-02-20T03:26:28.693Z,76.57
2018-02-20T03:28:57.046Z,89.55
2018-02-20T03:31:25.418Z,74.15
2018-02-20T03:33:53.779Z,80.38
2018-02-20T03:36:22.112Z,83.43
2018-02-20T03:38:50.447Z,81.57
2018-02-20T03:41:19.548Z,80.93
2018-02-20T03:43:47.894Z,83.93
2018-02-20T03:46:16.712Z,72.37
2018-02-20T03:48:45.030Z,78.22
2018-02-20T03:51:13.423Z,75.32
2018-02-20T03:53:41.937Z,78.37
2018-02-20T03:56:10.426Z,74.32
2018-02-20T03:58:38.768Z,93.87
2018-02-20T04:01:07.293Z,76.85
2018-02-20T04:03:36.541Z,80.18
2018-02-20T04:06:04.892Z,75.30
2018-02-20T04:08:34.684Z,81.63
2018-02-20T04:11:03.159Z,71.68
2018-02-20T04:13:31.534Z,76.05
2018-02-20T04:16:00.114Z,73.30
2018-02-20T04:18:28.431Z,74.20
2018-02-20T04:20:56.734Z,81.45
2018-02-20T04:23:25.073Z,73.18
2018-02-20T04:25:54.327Z,79.85
2018-02-20T04:28:22.801Z,75.10
2018-02-20T04:30:51.829Z,75.32
2018-02-20T04:33:20.308Z,69.22
2018-02-20T04:35:48.765Z,81.20
2018-02-20T04:38:17.170Z,72.20
2018-02-20T04:40:45.517Z,73.90
2018-02-20T04:43:13.930Z,70.40
2018-02-20T04:45:42.410Z,80.25
2018-02-20T04:48:10.808Z,76.20
2018-02-20T04:50:39.249Z,77.75
2018-02-20T04:53:08.109Z,72.93
2018-02-20T04:55:36.553Z,83.32
2018-02-20T04:58:05.645Z,70.28
2018-02-20T05:00:34.809Z,82.40
2018-02-20T05:03:03.208Z,78.07
2018-02-20T05:05:31.659Z,76.75
2018-02-20T05:08:00.002Z,66.62
2018-02-20T05:10:28.313Z,82.15
2018-02-20T05:12:56.630Z,79.90
2018-02-20T05:15:25.285Z,80.90
2018-02-20T05:17:53.904Z,91.05
2018-02-20T05:20:22.238Z,72.37
2018-02-20T05:22:50.594Z,78.25
2018-02-20T05:25:18.936Z,70.82
2018-02-20T05:27:47.277Z,80.68
2018-02-20T05:30:15.695Z,78.37
2018-02-20T05:32:44.078Z,86.15
2018-02-20T05:35:12.526Z,79.57
2018-02-20T05:37:42.352Z,79.40
2018-02-20T05:40:11.484Z,78.15
2018-02-20T05:42:40.585Z,82.25
2018-02-20T05:45:09.725Z,90.78
2018-02-20T05:47:38.052Z,76.05
2018-02-20T05:50:07.132Z,83.43
2018-02-20T05:52:35.482Z,75.82
2018-02-20T05:55:03.851Z,68.80
2018-02-20T05:57:32.238Z,66.80
2018-02-20T06:00:01.073Z,99.10
2018-02-20T06:02:29.414Z,72.90
2018-02-20T06:04:57.734Z,75.45
2018-02-20T06:07:26.100Z,84.80
2018-02-20T06:09:54.643Z,91.82
2018-02-20T06:12:22.973Z,70.75
2018-02-20T06:14:51.334Z,70.93
2018-02-20T06:17:19.719Z,73.30
2018-02-20T06:19:48.501Z,74.05
2018-02-20T06:22:17.136Z,75.35
2018-02-20T06:24:45.462Z,67.18
2018-02-20T06:27:13.784Z,76.45
2018-02-20T06:29:42.133Z,75.15
2018-02-20T06:32:10.468Z,65.80
2018-02-20T06:34:38.776Z,71.80
2018-02-20T06:37:07.139Z,91.53
2018-02-20T06:39:35.469Z,84.60
2018-02-20T06:42:04.564Z,75.53
2018-02-20T06:44:33.718Z,72.85
2018-02-20T06:47:02.036Z,80.03
2018-02-20T06:49:30.377Z,79.53
2018-02-20T06:51:58.753Z,87.18
2018-02-20T06:54:27.092Z,81.80
2018-02-20T06:56:55.445Z,79.45
2018-02-20T06:59:24.552Z,80.28
2018-02-20T07:01:53.661Z,82.53
2018-02-20T07:04:21.966Z,85.30
2018-02-20T07:06:50.658Z,76.97
2018-02-20T07:09:18.999Z,69.40
2018-02-20T07:11:47.303Z,82.18
2018-02-20T07:14:15.663Z,72.15
2018-02-20T07:16:44.727Z,80.43
2018-02-20T07:19:13.821Z,73.50
2018-02-20T07:21:43.002Z,82.78
2018-02-20T07:24:11.331Z,72.80
2018-02-20T07:26:39.657Z,74.32
2018-02-20T07:29:08.342Z,72.85
2018-02-20T07:31:36.688Z,67.60
2018-02-20T07:34:05.035Z,70.45
2018-02-20T07:36:33.451Z,75.35
2018-02-20T07:39:01.796Z,71.50
2018-02-20T07:41:30.140Z,79.32
2018-02-20T07:43:58.537Z,73.00
2018-02-20T07:46:26.836Z,72.83
2018-02-20T07:48:55.181Z,86.93
2018-02-20T07:51:23.811Z,71.33
2018-02-20T07:53:52.150Z,72.87
2018-02-20T07:56:20.468Z,72.20
2018-02-20T07:58:48.817Z,70.63
2018-02-20T08:01:17.155Z,75.17
2018-02-20T08:03:45.521Z,90.07
2018-02-20T08:06:13.861Z,73.80
2018-02-20T08:08:42.979Z,72.03
2018-02-20T08:11:11.304Z,69.80
2018-02-20T08:13:40.419Z,78.47
2018-02-20T08:16:08.750Z,72.27
2018-02-20T08:18:37.105Z,78.23
2018-02-20T08:21:05.458Z,77.97
2018-02-20T08:23:33.793Z,76.00
2018-02-20T08:26:02.146Z,75.03
2018-02-20T08:28:30.528Z,84.47
2018-02-20T08:30:58.852Z,68.77
2018-02-20T08:33:27.225Z,77.23
2018-02-20T08:35:55.837Z,61.77
2018-02-20T08:38:24.179Z,73.37
2018-02-20T08:40:52.524Z,68.43
2018-02-20T08:43:20.896Z,70.87
2018-02-20T08:45:49.979Z,74.77
2018-02-20T08:48:18.333Z,74.23
2018-02-20T08:50:47.429Z,68.77
2018-02-20T08:53:15.781Z,68.17
2018-02-20T08:55:44.121Z,67.40
2018-02-20T08:58:12.543Z,69.53
2018-02-20T09:00:40.915Z,67.67
2018-02-20T09:03:09.232Z,77.90
2018-02-20T09:05:37.622Z,68.90
2018-02-20T09:08:06.747Z,68.33
2018-02-20T09:10:35.091Z,74.43
2018-02-20T09:13:04.206Z,75.77
2018-02-20T09:15:33.286Z,70.03
2018-02-20T09:18:03.431Z,70.60
2018-02-20T09:20:32.177Z,74.10
2018-02-20T09:23:00.484Z,72.00
2018-02-20T09:25:28.803Z,69.20
2018-02-20T09:27:57.156Z,75.27
2018-02-20T09:30:25.487Z,65.13
2018-02-20T09:32:53.837Z,66.70
2018-02-20T09:35:22.196Z,74.87
2018-02-20T09:37:50.516Z,65.80
2018-02-20T09:40:18.863Z,66.87
2018-02-20T09:42:47.723Z,74.83
2018-02-20T09:45:16.041Z,75.57
2018-02-20T09:47:44.341Z,68.73
2018-02-20T09:50:12.690Z,78.30
2018-02-20T09:52:41.026Z,76.63
2018-02-20T09:55:10.130Z,71.47
2018-02-20T09:57:38.466Z,73.80
2018-02-20T10:00:06.923Z,68.13
2018-02-20T10:02:35.261Z,71.13
2018-02-20T10:05:03.966Z,66.83
2018-02-20T10:07:33.061Z,76.57
2018-02-20T10:10:01.403Z,71.43
2018-02-20T10:12:29.775Z,72.70
2018-02-20T10:14:58.078Z,92.47
2018-02-20T10:17:26.413Z,83.63
2018-02-20T10:19:54.759Z,81.13
2018-02-20T10:22:23.082Z,85.97
2018-02-20T10:24:51.415Z,84.30
2018-02-20T10:27:21.013Z,94.50
2018-02-20T10:29:49.351Z,80.33
2018-02-20T10:32:17.700Z,87.23
2018-02-20T10:34:46.455Z,84.20
2018-02-20T10:37:14.781Z,83.00
2018-02-20T10:39:43.113Z,84.07
2018-02-20T10:42:12.217Z,92.03
2018-02-20T10:44:41.313Z,82.77
2018-02-20T10:47:10.432Z,80.73
2018-02-20T10:49:39.126Z,79.23
2018-02-20T10:52:07.423Z,78.20
2018-02-20T10:54:35.772Z,89.00
2018-02-20T10:57:04.152Z,88.50
2018-02-20T10:59:32.481Z,75.63
2018-02-20T11:02:00.874Z,69.53
2018-02-20T11:04:29.999Z,75.47
2018-02-20T11:06:58.334Z,78.87
2018-02-20T11:09:26.652Z,73.33
2018-02-20T11:11:55.296Z,74.57
2018-02-20T11:14:23.625Z,81.33
2018-02-20T11:16:52.071Z,74.30
2018-02-20T11:19:21.149Z,76.00
2018-02-20T11:21:49.480Z,81.93
2018-02-20T11:24:17.831Z,75.50
2018-02-20T11:26:46.948Z,73.23
2018-02-20T11:29:15.293Z,85.50
2018-02-20T11:31:43.639Z,84.27
2018-02-20T11:34:12.703Z,76.80
2018-02-20T11:36:41.026Z,96.33
2018-02-20T11:39:09.368Z,68.97
2018-02-20T11:41:37.712Z,71.77
2018-02-20T11:44:06.016Z,79.33
2018-02-20T11:46:34.359Z,73.70
2018-02-20T11:49:03.477Z,70.60
2018-02-20T11:51:32.092Z,81.30
2018-02-20T11:54:00.403Z,75.43
2018-02-20T11:56:29.061Z,80.20
2018-02-20T11:58:57.420Z,74.73
2018-02-20T12:01:25.789Z,71.43
2018-02-20T12:03:54.167Z,83.20
2018-02-20T12:06:23.262Z,71.10
2018-02-20T12:08:52.357Z,72.63
2018-02-20T12:11:21.486Z,75.63
2018-02-20T12:13:49.812Z,76.03
2018-02-20T12:16:18.165Z,71.60
2018-02-20T12:18:46.846Z,73.47
2018-02-20T12:21:15.165Z,75.77
2018-02-20T12:23:44.264Z,69.50
2018-02-20T12:26:13.364Z,75.03
2018-02-20T12:28:42.511Z,70.07
2018-02-20T12:31:10.850Z,79.40
2018-02-20T12:33:39.218Z,69.40
2018-02-20T12:36:08.312Z,67.67
2018-02-20T12:38:37.475Z,79.63
2018-02-20T12:41:06.815Z,76.60
2018-02-20T12:43:35.157Z,71.00
2018-02-20T12:46:03.483Z,72.40
2018-02-20T12:48:31.833Z,78.73
2018-02-20T12:51:00.191Z,76.70
2018-02-20T12:53:28.524Z,73.93
2018-02-20T12:55:56.891Z,77.20
2018-02-20T12:58:25.203Z,79.37
2018-02-20T13:00:53.550Z,73.53
2018-02-20T13:03:22.181Z,78.73
2018-02-20T13:05:50.533Z,79.30
2018-02-20T13:08:18.846Z,77.23
2018-02-20T13:10:47.209Z,78.50
2018-02-20T13:13:15.606Z,76.97
2018-02-20T13:15:44.013Z,80.60
2018-02-20T13:18:13.154Z,68.80
2018-02-20T13:20:41.513Z,75.87
2018-02-20T13:23:09.840Z,65.13
2018-02-20T13:25:38.552Z,68.37
2018-02-20T13:28:07.664Z,68.60
2018-02-20T13:30:36.778Z,77.27
2018-02-20T13:33:05.153Z,75.53
2018-02-20T13:35:33.463Z,74.30
2018-02-20T13:38:01.785Z,83.87
2018-02-20T13:40:30.118Z,79.73
2018-02-20T13:42:58.464Z,80.77
2018-02-20T13:45:26.793Z,80.30
2018-02-20T13:47:55.623Z,94.20
2018-02-20T13:50:24.054Z,77.30
2018-02-20T13:52:52.476Z,79.57
2018-02-20T13:55:21.610Z,78.40
2018-02-20T13:57:49.949Z,80.93
2018-02-20T14:00:18.370Z,72.77
2018-02-20T14:02:46.734Z,81.57
2018-02-20T14:05:15.061Z,81.00
2018-02-20T14:07:43.400Z,78.70
2018-02-20T14:10:12.131Z,88.53
2018-02-20T14:12:40.408Z,84.80
2018-02-20T14:15:08.737Z,82.40
2018-02-20T14:17:37.109Z,85.20
2018-02-20T14:20:05.462Z,81.57
2018-02-20T14:22:33.778Z,72.47
2018-02-20T14:25:02.147Z,78.73
2018-02-20T14:27:30.460Z,89.27
2018-02-20T14:29:58.783Z,86.83
2018-02-20T14:32:27.678Z,96.67
2018-02-20T14:34:56.758Z,92.37
2018-02-20T14:37:25.083Z,77.27
2018-02-20T14:39:53.426Z,85.63
2018-02-20T14:42:22.505Z,79.87
2018-02-20T14:44:51.612Z,88.60
2018-02-20T14:47:20.848Z,85.83
2018-02-20T14:49:49.157Z,82.40
2018-02-20T14:52:17.540Z,86.07
2018-02-20T14:54:46.254Z,81.40
2018-02-20T14:57:14.605Z,88.83
2018-02-20T14:59:42.976Z,94.27
2018-02-20T15:02:11.358Z,82.20
2018-02-20T15:04:39.697Z,88.73
2018-02-20T15:07:08.053Z,79.73
2018-02-20T15:09:36.387Z,78.37
2018-02-20T15:12:04.738Z,79.90
2018-02-20T15:14:33.141Z,78.10
2018-02-20T15:17:02.417Z,87.10
2018-02-20T15:19:30.773Z,91.07
2018-02-20T15:21:59.854Z,82.30
2018-02-20T15:24:28.997Z,76.83
2018-02-20T15:26:57.322Z,95.00
2018-02-20T15:29:25.626Z,84.33
2018-02-20T15:31:53.977Z,93.80
2018-02-20T15:34:22.337Z,84.50
2018-02-20T15:36:50.653Z,82.90
2018-02-20T15:39:19.092Z,88.53
2018-02-20T15:41:47.435Z,86.33
2018-02-20T15:44:15.774Z,87.50
2018-02-20T15:46:44.139Z,90.30
2018-02-20T15:49:12.502Z,91.30
2018-02-20T15:51:40.849Z,94.07
2018-02-20T15:54:09.246Z,88.63
2018-02-20T15:56:37.665Z,100.20
2018-02-20T15:59:05.940Z,96.70
2018-02-20T16:01:34.386Z,97.53
2018-02-20T16:04:02.713Z,100.50
2018-02-20T16:06:31.022Z,104.40
2018-02-20T16:08:59.365Z,94.83
2018-02-20T16:11:27.677Z,93.90
2018-02-20T16:14:00.361Z,104.20
2018-02-20T16:16:28.731Z,94.13
2018-02-20T16:18:57.073Z,100.00
2018-02-20T16:21:25.762Z,94.47
2018-02-20T16:23:54.077Z,96.03
2018-02-20T16:26:22.412Z,106.33
2018-02-20T16:28:50.768Z,98.00
2018-02-20T16:31:19.085Z,106.33
2018-02-20T16:33:47.421Z,101.47
2018-02-20T16:36:15.772Z,96.73
2018-02-20T16:38:44.073Z,102.17
2018-02-20T16:41:12.402Z,108.40
2018-02-20T16:43:40.864Z,99.57
2018-02-20T16:46:09.209Z,99.17
2018-02-20T16:48:37.515Z,101.43
2018-02-20T16:51:05.878Z,98.05
2018-02-20T16:53:34.217Z,104.77
2018-02-20T16:56:02.545Z,102.28
2018-02-20T16:58:30.903Z,103.80
2018-02-20T17:00:59.329Z,112.45
2018-02-20T17:03:28.413Z,115.30
2018-02-20T17:05:57.005Z,105.85
2018-02-20T17:08:25.342Z,103.22
2018-02-20T17:10:53.672Z,105.78
2018-02-20T17:13:22.779Z,106.15
2018-02-20T17:15:51.865Z,106.60
2018-02-20T17:18:20.244Z,113.28
2018-02-20T17:20:49.378Z,107.00
2018-02-20T17:23:17.701Z,117.15
2018-02-20T17:25:46.015Z,111.55
2018-02-20T17:28:14.700Z,110.80
2018-02-20T17:30:43.036Z,129.98
2018-02-20T17:33:11.412Z,103.85
2018-02-20T17:35:39.820Z,110.65
2018-02-20T17:38:08.914Z,110.90
2018-02-20T17:40:37.286Z,104.93
2018-02-20T17:43:05.671Z,116.20
2018-02-20T17:45:34.006Z,118.43
2018-02-20T17:48:02.395Z,112.32
2018-02-20T17:50:31.268Z,104.70
2018-02-20T17:52:59.564Z,110.57
2018-02-20T17:55:28.004Z,115.28
2018-02-20T17:57:56.344Z,103.78
2018-02-20T18:00:24.760Z,110.45
2018-02-20T18:02:53.141Z,120.03
2018-02-20T18:05:21.659Z,115.35
2018-02-20T18:07:50.022Z,105.30
2018-02-20T18:10:18.402Z,106.43
2018-02-20T18:12:46.906Z,111.22
2018-02-20T18:15:15.268Z,108.45
2018-02-20T18:17:43.630Z,116.88
2018-02-20T18:20:12.025Z,120.53
2018-02-20T18:22:40.437Z,108.20
2018-02-20T18:25:08.752Z,114.32
2018-02-20T18:27:37.884Z,103.95
2018-02-20T18:30:06.278Z,115.82
2018-02-20T18:32:34.609Z,109.97
2018-02-20T18:35:03.190Z,108.22
2018-02-20T18:37:31.526Z,111.68
2018-02-20T18:39:59.841Z,121.68
2018-02-20T18:42:29.035Z,108.90
2018-02-20T18:44:57.445Z,113.60
2018-02-20T18:47:25.772Z,117.68
2018-02-20T18:49:54.148Z,113.97
2018-02-20T18:52:22.483Z,101.35
2018-02-20T18:54:50.865Z,114.47
2018-02-20T18:57:19.560Z,107.50
2018-02-20T18:59:47.966Z,108.45
2018-02-20T19:02:16.290Z,117.18
2018-02-20T19:04:44.642Z,97.82
2018-02-20T19:07:13.065Z,102.85
2018-02-20T19:09:41.420Z,101.12
2018-02-20T19:12:10.560Z,93.53
2018-02-20T19:14:38.884Z,100.95
2018-02-20T19:17:07.983Z,99.85
2018-02-20T19:19:37.108Z,100.87
2018-02-20T19:22:05.427Z,106.28
2018-02-20T19:24:33.758Z,108.05
2018-02-20T19:27:02.912Z,104.05
2018-02-20T19:29:31.253Z,98.28
2018-02-20T19:31:59.579Z,87.07
2018-02-20T19:34:27.923Z,92.90
2018-02-20T19:36:56.428Z,82.05
2018-02-20T19:39:24.754Z,78.95
2018-02-20T19:41:53.241Z,93.78
2018-02-20T19:44:21.589Z,77.53
2018-02-20T19:46:49.934Z,81.72
2018-02-20T19:49:18.275Z,92.68
2018-02-20T19:51:46.591Z,81.70
2018-02-20T19:54:14.929Z,82.47
2018-02-20T19:56:43.245Z,80.03
2018-02-20T19:59:11.554Z,82.00
2018-02-20T20:01:39.869Z,78.40
2018-02-20T20:04:08.379Z,84.75
2018-02-20T20:06:36.725Z,83.25
2018-02-20T20:09:05.054Z,81.18
2018-02-20T20:11:33.417Z,86.22
2018-02-20T20:14:01.739Z,89.85
2018-02-20T20:16:30.886Z,83.12
2018-02-20T20:18:59.225Z,79.28
2018-02-20T20:21:27.614Z,86.80
2018-02-20T20:23:55.905Z,81.45
2018-02-20T20:26:24.429Z,78.30
2018-02-20T20:28:52.760Z,87.85
2018-02-20T20:31:21.083Z,82.70
2018-02-20T20:33:49.437Z,95.10
2018-02-20T20:36:18.399Z,83.43
2018-02-20T20:38:46.734Z,76.25
2018-02-20T20:41:15.106Z,81.50
2018-02-20T20:43:44.128Z,85.47
2018-02-20T20:46:12.467Z,83.05
2018-02-20T20:48:40.877Z,87.62
2018-02-20T20:51:09.184Z,87.00
2018-02-20T20:53:38.262Z,80.43
2018-02-20T20:56:06.633Z,79.37
2018-02-20T20:58:35.045Z,77.95
2018-02-20T21:01:04.133Z,86.95
2018-02-20T21:03:33.534Z,73.87
2018-02-20T21:06:01.889Z,79.68
2018-02-20T21:08:30.222Z,76.10
2018-02-20T21:10:59.001Z,74.65
2018-02-20T21:13:27.326Z,74.05
2018-02-20T21:15:56.465Z,72.57
2018-02-20T21:18:24.871Z,78.62
2018-02-20T21:20:53.242Z,77.78
2018-02-20T21:23:21.614Z,80.97
2018-02-20T21:25:49.996Z,83.22
2018-02-20T21:28:18.337Z,63.20
2018-02-20T21:30:46.667Z,73.53
2018-02-20T21:33:15.298Z,75.00
2018-02-20T21:35:43.614Z,70.25
2018-02-20T21:38:11.957Z,72.78
2018-02-20T21:40:40.305Z,69.60
2018-02-20T21:43:08.620Z,76.03
2018-02-20T21:45:37.023Z,70.85
2018-02-20T21:48:05.367Z,76.97
2018-02-20T21:50:33.701Z,81.78
2018-02-20T21:53:02.034Z,76.55
2018-02-20T21:55:31.657Z,74.28
2018-02-20T21:58:00.741Z,75.95
2018-02-20T22:00:29.065Z,71.82
2018-02-20T22:02:57.421Z,70.32
2018-02-20T22:05:25.771Z,71.65
2018-02-20T22:07:54.122Z,71.82
2018-02-20T22:10:22.468Z,70.47
2018-02-20T22:12:50.831Z,70.03
2018-02-20T22:15:19.191Z,74.03
2018-02-20T22:17:48.629Z,77.37
2018-02-20T22:20:16.972Z,65.75
2018-02-20T22:22:46.066Z,68.53
2018-02-20T22:25:15.185Z,78.32
2018-02-20T22:27:44.328Z,74.53
2018-02-20T22:30:12.628Z,101.12
2018-02-20T22:32:41.060Z,62.70
2018-02-20T22:35:09.398Z,63.40
2018-02-20T22:37:37.746Z,72.97
2018-02-20T22:40:06.941Z,74.28
2018-02-20T22:42:35.311Z,70.75
2018-02-20T22:45:03.654Z,66.35
2018-02-20T22:47:32.015Z,67.60
2018-02-20T22:50:00.349Z,68.82
2018-02-20T22:52:28.704Z,64.37
2018-02-20T22:54:57.065Z,68.12
2018-02-20T22:57:25.393Z,71.78
2018-02-20T22:59:53.728Z,67.22
2018-02-20T23:02:22.186Z,65.00
2018-02-20T23:04:50.483Z,66.95
2018-02-20T23:07:19.580Z,68.07
2018-02-20T23:09:48.667Z,62.40
2018-02-20T23:12:17.796Z,61.75
2018-02-20T23:14:46.141Z,68.87
2018-02-20T23:17:15.315Z,67.28
2018-02-20T23:19:43.662Z,58.17
2018-02-20T23:22:11.990Z,58.13
2018-02-20T23:24:40.916Z,65.50
2018-02-20T23:27:09.217Z,57.80
2018-02-20T23:29:37.533Z,70.85
2018-02-20T23:32:06.680Z,69.62
2018-02-20T23:34:35.007Z,74.25
2018-02-20T23:37:03.325Z,57.13
2018-02-20T23:39:31.695Z,63.83
2018-02-20T23:42:00.091Z,69.20
2018-02-20T23:44:28.439Z,56.88
2018-02-20T23:46:57.262Z,58.10
2018-02-20T23:49:25.584Z,64.62
2018-02-20T23:51:53.949Z,61.80
2018-02-20T23:54:22.275Z,67.37
2018-02-20T23:56:50.629Z,76.47
2018-02-20T23:59:19.720Z,62.62
